Cedar Falls, North Carolina
Current Conditions -  °F | °C
As of 1:35 AM on Friday 28 Nov 2014 (Local Time) from KHBI Reporting Station
Clear Clear  
Wind Chill: 27°   Ceiling: Unl
Heat Index: 33°   Visibility: 10mi
Dew Point: 19°   Wind: 6mph
Humidity: 58%   Direction: 320°NW
Pressure: 30.32"   Gusts: NA
Location:  35.75°N, 79.73°W
Report Text: KHBI 280635Z AUTO 32005KT 10SM CLR 00/M07 A3032 RMK AO2 T00031071
Loading
Personal Weather Stations






























Interactive Weather Map New forecast layout! Learn more

10-Day Weather Forecast

Advertisements
Track Severe Weather on mobile